ADDS METAR Data INFO
IDs: Format: Raw Decoded Include TAF

Data at: 1017 UTC 14 Dec 2017

KAAT 140955Z AUTO 12003KT 5SM BR CLR M07/M09 A3035 RMK AO2 SLP290 T10721094 TSNO
KAAT 140855Z AUTO 00000KT 7SM CLR M07/M09 A3034 RMK AO2 SLP292 T10721089 58001 TSNO
KAAT 140805Z AUTO 10004KT 3SM HZ CLR M06/M09 A3035 RMK AO2 T10611089 TSNO
KAAT 140755Z AUTO 00000KT 2 1/2SM BR CLR M07/M09 A3035 RMK AO2 SLP298 T10721089 401061106 TSNO
KAAT 140740Z AUTO 06003KT 2 1/2SM BR CLR M07/M08 A3035 RMK AO2 T10671083 TSNO
KAAT 140655Z AUTO 14003KT 9SM CLR M04/M07 A3034 RMK AO2 SLP296 T10391072 TSNO
KAAT 140555Z AUTO 00000KT 10SM CLR M05/M07 A3034 RMK AO2 SLP305 T10501072 10089 21056 51012 TSNO
KAAT 140455Z AUTO 21003KT 10SM CLR M05/M08 A3034 RMK AO2 SLP309 T10501078 TSNO
KAAT 140447Z AUTO 20003KT 3SM HZ CLR M03/M07 A3034 RMK AO2 T10281072 TSNO
KAAT 140437Z AUTO 00000KT 1 3/4SM HZ CLR M03/M07 A3034 RMK AO2 T10331072 TSNO
KAAT 140355Z AUTO 13004KT 10SM CLR M03/M07 A3032 RMK AO2 SLP306 T10281067 TSNO
KAAT 140255Z AUTO 00000KT 10SM CLR M03/M07 A3030 RMK AO2 SLP299 T10281067 53014 TSNO
KAAT 140155Z AUTO 15003KT 9SM CLR 02/M06 A3028 RMK AO2 SLP287 T00171061 TSNO
KAAT 140055Z AUTO 36003KT 8SM CLR 04/M07 A3027 RMK AO2 SLP280 T00391072 TSNO
KAAT 132355Z AUTO 00000KT 10SM CLR 09/M06 A3026 RMK AO2 SLP260 T00891061 10106 21017 55003 TSNO
KAAT 132255Z AUTO 00000KT 10SM CLR 10/M08 A3025 RMK AO2 SLP261 T01001083 TSNO
KAAT 132155Z AUTO 00000KT 10SM CLR 10/M11 A3025 RMK AO2 SLP262 T01001111 TSNO
KAAT 132055Z AUTO 00000KT 10SM CLR 08/M09 A3027 RMK AO2 SLP271 T00781094 56023 TSNO
KAAT 131955Z AUTO 00000KT 10SM CLR 06/M09 A3029 RMK AO2 SLP279 T00561089 TSNO
KAAT 131855Z AUTO 00000KT 10SM CLR 02/M07 A3032 RMK AO2 SLP293 T00221067 TSNO
KAAT 131755Z AUTO 00000KT 10SM CLR M02/M06 A3035 RMK AO2 SLP308 T10221061 11022 21106 58002 TSNO
KAAT 131655Z AUTO 00000KT 10SM CLR M05/M08 A3036 RMK AO2 SLP318 T10501078 TSNO
KAAT 131555Z AUTO 29003KT 10SM CLR M09/M12 A3036 RMK AO2 SLP322 T10891117 TSNO
KAAT 131455Z AUTO 10004KT 7SM CLR M08/M11 A3035 RMK AO2 SLP316 T10831106 55003 TSNO
KAAT 131355Z AUTO 00000KT 7SM CLR M10/M12 A3033 RMK AO2 SLP307 T11001117 TSNO
KAAT 131255Z AUTO 00000KT 7SM CLR M11/M12 A3035 RMK AO2 SLP306 T11061122 TSNO
KAAT 131155Z AUTO 00000KT 10SM CLR M07/M09 A3036 RMK AO2 SLP299 T10721094 11050 21106 52006 TSNO
KAAT 131055Z AUTO 33003KT 9SM CLR M09/M12 A3034 RMK AO2 SLP294 T10941117 TSNO
KAAT 130955Z AUTO 26003KT 10SM CLR M11/M13 A3035 RMK AO2 SLP302 T11061128 TSNO
KAAT 130855Z AUTO 00000KT 8SM CLR M10/M12 A3034 RMK AO2 SLP297 T11001117 58007 TSNO
KAAT 130755Z AUTO 01003KT 4SM BR CLR M08/M10 A3035 RMK AO2 SLP304 T10831100 401001128 TSNO
KAAT 130655Z AUTO 14006KT 7SM CLR M08/M10 A3036 RMK AO2 SLP311 T10831100 TSNO
KAAT 130555Z AUTO 03003KT 5SM HZ CLR M06/M09 A3036 RMK AO2 SLP312 T10611089 10078 21078 58002 TSNO
KAAT 130455Z AUTO 00000KT 10SM CLR M07/M09 A3037 RMK AO2 SLP325 T10671094 TSNO
KAAT 130355Z AUTO 00000KT 5SM HZ CLR M04/M09 A3037 RMK AO2 SLP332 T10441089 TSNO
KAAT 130255Z AUTO 00000KT 7SM CLR M03/M08 A3037 RMK AO2 SLP331 T10331083 58005 TSNO
KAAT 130155Z AUTO 00000KT 10SM CLR M02/M08 A3038 RMK AO2 SLP329 T10171078 TSNO
KAAT 130055Z AUTO 07003KT 10SM CLR 03/M07 A3038 RMK AO2 SLP317 T00331067 TSNO
KAAT 122355Z AUTO 28004KT 10SM CLR 08/M05 A3039 RMK AO2 SLP315 T00781050 10100 21006 56003 TSNO
KAAT 122255Z AUTO 00000KT 10SM CLR 10/M07 A3039 RMK AO2 SLP309 T01001067 TSNO